Weather at Engkadik Airstrip

Public forecast

Using degrees Celsius for public forecast. Weather courtesy of forecast.io.

Closest aviation weather report (METAR) to Engkadik Airstrip

Closest report is Kuching International Airport, 36.2 nm (67.0 km) NNE.

2024/05/26 17:00 (retrieved 28 minutes ago)

WBGG 261700Z 00000KT 9999 FEW020 25/25 Q1009 NOSIG

Closest aviation forecast (TAF) to Engkadik Airstrip

Closest forecast is Kuching International Airport, 36.2 nm (67.0 km) NNE.

2024/05/26 12:09 (retrieved 5 hours ago)

TAF TAF WBGG 261100Z 2612/2712 24005KT 9999 FEW018 TEMPO 2622/2701 5000 TSRA FEW015CB